Midland, MI (48640)

11:09 AM EST on February 07, 2016 (GMT -0500)
Mid Michigan Computer Inc | | Change Station
CLOSE
Current Station
Personal Weather Station
Location: Midland, MI
Elevation: 659 ft
Nearby Weather Stations

Elev 659 ft 43.59 °N, 84.34 °W | Updated 24 seconds ago

Overcast
Overcast
--
Feels Like --
N
-
Wind Variable Wind from North

Today
High -- | Low -- °F
--% Chance of Precip.
Yesterday
High -- | Low -- °F
Precip. -- in
Pressure 29.81 in
Visibility 10.0 miles
Clouds Overcast 9500 ft
Dew Point Not available.
Humidity Not available.
Rainfall 0.00 in
Snow Depth Not available.
7:47 AM 5:55 PM
Waning Crescent, 1% visible
METAR KIKW 071554Z AUTO 16005KT 10SM OVC095 04/M02 A2981 RMK AO2 T00381018
Pressure 29.81 in
Visibility 10.0 miles
Clouds Overcast 9500 ft
Dew Point Not available.
Humidity Not available.
Rainfall 0.00 in
Snow Depth Not available.
7:47 AM 5:55 PM
Waning Crescent, 1% visible
METAR KIKW 071554Z AUTO 16005KT 10SM OVC095 04/M02 A2981 RMK AO2 T00381018

10-Day Weather Forecast

Almanac

Astronomy

Feb. 07, 2016 Rise Set
Actual Time
Civil Twilight
Nautical Twilight
Astronomical Twilight
Moon
Length of Visible Light
Length of Day
Tomorrow will be .
, % of the Moon is Illuminated

Today's Extremes

State Highs State Lows

Community

WunderPhotos

Upload Photos

1,891,218 photos uploaded!

WunderBlog® & News

Nearby

Air Quality

  Air Quality AQ Index Pollutant
Not available.

Snow Depth

Station Depth Elevation

Earthquake Activity

City Distance Mag. Time & Date
Minimum magnitude displayed is 2.5.

Coastal Water Temperatures

Place Temperature

Stations

Nearby Weather Stations

Station Location Temp. Windchill Dew Point Humidity Wind Precip. Elev Updated Type
                   

Watches & Warnings

There are currently no watches in effect.